Time;durP1;ratioP1;P1;durP2;ratioP2;P2;SDS_P1;SDS_P2;PMS_P1;PMS_P2;Temp;Humidity;BMP_temperature;BMP_pressure;BME280_temperature;BME280_humidity;BME280_pressure;Samples;Min_cycle;Max_cycle;Signal;HPM_P1;HPM_P2
2022/07/11 00:00:01;;;;;;;5.53;3.22;;;18.90;99.90;;;;;;5046008;28;20332;-82
2022/07/11 00:02:27;;;;;;;4.40;3.45;;;18.80;99.90;;;;;;5051851;28;20184;-82
2022/07/11 00:04:53;;;;;;;4.03;3.15;;;18.90;99.90;;;;;;5038647;28;20153;-83
2022/07/11 00:07:18;;;;;;;6.03;3.40;;;19.10;99.90;;;;;;5019263;28;20247;-84
2022/07/11 00:09:44;;;;;;;5.75;3.67;;;19.10;99.90;;;;;;5030857;28;20687;-83
2022/07/11 00:12:11;;;;;;;4.97;3.92;;;19.10;99.90;;;;;;5030852;28;20169;-83
2022/07/11 00:14:39;;;;;;;8.63;3.88;;;19.30;99.90;;;;;;5015491;28;20192;-85
2022/07/11 00:17:08;;;;;;;8.43;3.30;;;18.90;99.90;;;;;;5030903;28;20165;-84
2022/07/11 00:19:36;;;;;;;11.73;3.70;;;19.00;99.90;;;;;;5015567;28;20185;-84
2022/07/11 00:22:02;;;;;;;14.38;3.80;;;18.90;99.90;;;;;;5031128;28;20267;-83
2022/07/11 00:24:27;;;;;;;4.35;3.95;;;18.90;99.90;;;;;;5029734;28;20169;-81
2022/07/11 00:26:53;;;;;;;8.77;3.63;;;18.80;99.90;;;;;;5030439;28;20179;-84
2022/07/11 00:29:19;;;;;;;5.00;3.70;;;18.90;99.90;;;;;;5029902;28;20216;-83
2022/07/11 00:31:44;;;;;;;3.55;3.25;;;19.10;99.90;;;;;;5031724;28;20267;-82
2022/07/11 00:34:10;;;;;;;5.32;4.30;;;19.10;99.90;;;;;;5015775;28;20180;-84
2022/07/11 00:36:36;;;;;;;7.57;4.88;;;19.00;99.90;;;;;;5015187;28;20248;-83
2022/07/11 00:39:03;;;;;;;10.93;4.97;;;19.00;99.90;;;;;;5014917;28;20187;-84
2022/07/11 00:41:28;;;;;;;4.40;4.00;;;19.00;99.90;;;;;;5014783;28;20169;-85
2022/07/11 00:43:56;;;;;;;5.60;3.60;;;19.00;99.90;;;;;;5014917;28;20164;-84
2022/07/11 00:46:22;;;;;;;7.45;4.32;;;18.90;99.90;;;;;;5014779;28;20172;-84
2022/07/11 00:48:48;;;;;;;7.10;4.60;;;18.90;99.90;;;;;;5014921;28;20222;-84
2022/07/11 00:51:17;;;;;;;4.50;4.10;;;19.00;99.90;;;;;;5014503;28;20239;-83
2022/07/11 00:53:43;;;;;;;8.70;4.35;;;18.90;99.90;;;;;;5029887;28;20622;-84
2022/07/11 00:56:09;;;;;;;6.28;3.45;;;18.90;99.90;;;;;;5014367;28;20172;-85
2022/07/11 00:58:36;;;;;;;3.55;3.25;;;19.00;99.90;;;;;;5030093;28;20183;-85
2022/07/11 01:01:02;;;;;;;3.40;3.10;;;19.00;99.90;;;;;;5029729;28;20180;-85
2022/07/11 01:03:28;;;;;;;2.88;2.30;;;19.10;99.90;;;;;;5029880;28;20268;-85
2022/07/11 01:05:54;;;;;;;8.25;2.60;;;19.00;99.90;;;;;;5029605;28;20196;-84
2022/07/11 01:08:20;;;;;;;13.35;2.95;;;18.80;99.90;;;;;;5029411;28;20207;-84
2022/07/11 01:10:46;;;;;;;4.57;2.22;;;18.60;99.90;;;;;;5029618;28;20237;-85
2022/07/11 01:13:11;;;;;;;3.53;2.80;;;18.60;99.90;;;;;;5014441;28;20204;-84
2022/07/11 01:15:37;;;;;;;3.88;2.63;;;18.80;99.90;;;;;;5029136;28;20235;-84
2022/07/11 01:18:03;;;;;;;6.38;2.60;;;18.70;99.90;;;;;;5029755;28;20171;-83
2022/07/11 01:20:29;;;;;;;6.05;2.70;;;18.70;99.90;;;;;;5029104;28;20661;-84
2022/07/11 01:23:01;;;;;;;3.35;3.00;;;18.60;99.90;;;;;;5029252;28;20176;-83
2022/07/11 01:25:31;;;;;;;4.93;3.42;;;18.50;99.90;;;;;;5029311;28;20180;-83
2022/07/11 01:28:02;;;;;;;2.63;2.45;;;18.50;99.90;;;;;;5029214;28;20200;-83
2022/07/11 01:30:29;;;;;;;5.05;3.25;;;18.60;99.90;;;;;;5012570;28;20196;-84
2022/07/11 01:32:55;;;;;;;3.72;3.03;;;18.60;99.90;;;;;;5029515;28;20180;-84
2022/07/11 01:35:21;;;;;;;5.00;3.13;;;18.50;99.90;;;;;;5014268;28;20706;-85
2022/07/11 01:37:47;;;;;;;4.32;3.17;;;18.40;99.90;;;;;;5013822;28;20165;-84
2022/07/11 01:40:13;;;;;;;4.40;3.55;;;18.30;99.90;;;;;;5013909;28;20548;-84
2022/07/11 01:42:39;;;;;;;3.53;3.03;;;18.30;99.90;;;;;;5029170;28;20540;-82
2022/07/11 01:45:05;;;;;;;4.10;3.35;;;18.20;99.90;;;;;;5029235;28;20649;-84
2022/07/11 01:47:31;;;;;;;6.38;3.42;;;18.30;99.90;;;;;;5012815;28;20169;-83
2022/07/11 01:49:56;;;;;;;6.13;3.08;;;18.50;99.90;;;;;;5013748;28;20200;-84
2022/07/11 01:52:22;;;;;;;4.40;3.58;;;18.50;99.90;;;;;;5029119;28;20165;-84
2022/07/11 01:54:48;;;;;;;7.85;3.22;;;18.50;99.90;;;;;;5028927;28;20175;-84
2022/07/11 01:57:14;;;;;;;3.20;2.90;;;18.50;99.90;;;;;;5028669;28;20901;-83
2022/07/11 01:59:40;;;;;;;3.95;3.03;;;18.40;99.90;;;;;;5013369;28;20180;-82
2022/07/11 02:02:06;;;;;;;3.03;2.67;;;18.30;99.90;;;;;;5012485;28;20226;-84
2022/07/11 02:04:32;;;;;;;4.13;2.85;;;18.30;99.90;;;;;;5013735;28;20227;-84
2022/07/11 02:06:58;;;;;;;6.75;2.90;;;18.40;99.90;;;;;;5029148;28;20169;-84
2022/07/11 02:09:24;;;;;;;7.10;2.90;;;18.30;99.90;;;;;;5028531;28;20221;-84
2022/07/11 02:11:49;;;;;;;3.90;3.50;;;18.20;99.90;;;;;;5028724;28;20200;-84
2022/07/11 02:14:15;;;;;;;5.88;3.70;;;18.10;99.90;;;;;;5013307;28;20180;-82
2022/07/11 02:16:41;;;;;;;3.88;3.22;;;18.30;99.90;;;;;;5028526;28;20259;-83
2022/07/11 02:19:07;;;;;;;3.65;3.35;;;18.30;99.90;;;;;;5028765;28;20282;-83
2022/07/11 02:21:33;;;;;;;3.92;3.08;;;18.30;99.90;;;;;;5013353;28;20175;-82
2022/07/11 02:23:59;;;;;;;7.18;3.10;;;18.30;99.90;;;;;;5013446;28;20179;-84
2022/07/11 02:26:25;;;;;;;3.20;2.92;;;18.40;99.90;;;;;;5013601;28;20172;-84
2022/07/11 02:28:50;;;;;;;4.55;3.10;;;18.30;99.90;;;;;;5012933;28;20214;-84
2022/07/11 02:31:16;;;;;;;4.00;3.05;;;18.20;99.90;;;;;;5014464;28;20728;-84
2022/07/11 02:33:42;;;;;;;6.28;3.08;;;18.20;99.90;;;;;;5033730;28;20175;-84
2022/07/11 02:36:08;;;;;;;3.42;3.13;;;18.00;99.90;;;;;;5036498;28;20212;-82
2022/07/11 02:38:34;;;;;;;7.07;3.83;;;18.00;99.90;;;;;;5031053;28;20219;-84
2022/07/11 02:41:00;;;;;;;3.80;2.95;;;18.00;99.90;;;;;;5013211;28;20219;-84
2022/07/11 02:43:27;;;;;;;4.75;3.22;;;18.10;99.90;;;;;;5028886;28;20630;-84
2022/07/11 02:45:53;;;;;;;12.18;4.00;;;18.20;99.90;;;;;;5028362;28;20168;-84
2022/07/11 02:48:19;;;;;;;3.85;3.30;;;17.90;99.90;;;;;;5030667;28;20208;-83
2022/07/11 02:50:46;;;;;;;9.32;3.70;;;17.70;99.90;;;;;;5017114;28;20191;-82
2022/07/11 02:53:11;;;;;;;5.53;4.18;;;17.70;99.90;;;;;;5017384;28;20672;-84
2022/07/11 02:55:37;;;;;;;10.38;4.13;;;17.60;99.90;;;;;;5015919;28;20168;-84
2022/07/11 02:58:03;;;;;;;8.45;4.28;;;17.70;99.90;;;;;;5017134;28;20172;-84
2022/07/11 03:00:29;;;;;;;5.72;4.28;;;17.80;99.90;;;;;;5017203;28;20188;-83
2022/07/11 03:02:54;;;;;;;8.13;4.78;;;17.80;99.90;;;;;;5017427;28;20276;-85
2022/07/11 03:05:20;;;;;;;13.57;4.95;;;17.90;99.90;;;;;;5031984;28;20183;-84
2022/07/11 03:07:46;;;;;;;5.80;5.20;;;17.70;99.90;;;;;;5015618;28;20215;-83
2022/07/11 03:10:12;;;;;;;6.18;5.57;;;17.70;99.90;;;;;;5016505;28;20184;-84
2022/07/11 03:12:38;;;;;;;12.30;5.60;;;17.70;99.90;;;;;;5031872;28;20677;-84
2022/07/11 03:15:04;;;;;;;11.25;6.00;;;17.50;99.90;;;;;;5016648;28;20596;-84
2022/07/11 03:17:30;;;;;;;10.02;5.45;;;17.60;99.90;;;;;;5016556;28;20173;-84
2022/07/11 03:19:56;;;;;;;7.05;6.22;;;17.70;99.90;;;;;;5015379;28;20196;-84
2022/07/11 03:22:23;;;;;;;6.53;5.93;;;17.80;99.90;;;;;;5016633;28;20491;-84
2022/07/11 03:24:50;;;;;;;9.02;6.45;;;17.70;99.90;;;;;;5031458;28;20593;-84
2022/07/11 03:27:16;;;;;;;7.40;6.70;;;17.70;99.90;;;;;;5014987;28;20160;-84
2022/07/11 03:29:41;;;;;;;7.65;6.75;;;17.80;99.90;;;;;;5016425;28;20220;-83
2022/07/11 03:32:08;;;;;;;10.43;7.25;;;17.60;99.90;;;;;;5016411;28;20703;-84
2022/07/11 03:34:33;;;;;;;13.45;7.50;;;17.70;99.90;;;;;;5014711;28;20181;-83
2022/07/11 03:37:00;;;;;;;13.35;7.15;;;17.70;99.90;;;;;;5015814;28;20164;-84
2022/07/11 03:39:26;;;;;;;12.85;8.48;;;17.60;99.90;;;;;;5015814;28;20207;-83
2022/07/11 03:41:52;;;;;;;13.63;7.43;;;17.70;99.90;;;;;;5031639;28;20525;-82
2022/07/11 03:44:18;;;;;;;8.73;7.82;;;17.60;99.90;;;;;;5014788;28;20172;-85
2022/07/11 03:46:44;;;;;;;14.05;7.80;;;17.60;99.90;;;;;;5015922;28;20648;-84
2022/07/11 03:49:10;;;;;;;18.27;7.60;;;17.80;99.90;;;;;;5014479;28;20220;-84
2022/07/11 03:51:36;;;;;;;9.00;7.93;;;17.80;99.90;;;;;;5030967;28;20165;-84
2022/07/11 03:54:02;;;;;;;10.13;7.88;;;17.60;99.90;;;;;;5016157;28;20184;-85
2022/07/11 03:56:27;;;;;;;15.13;7.72;;;17.30;99.90;;;;;;5014641;28;20652;-84
2022/07/11 03:58:53;;;;;;;9.05;7.53;;;17.20;99.90;;;;;;5030829;28;20660;-84
2022/07/11 04:01:19;;;;;;;10.55;7.78;;;17.20;99.90;;;;;;5014315;28;20172;-84
2022/07/11 04:03:46;;;;;;;15.02;8.57;;;17.30;99.90;;;;;;5031143;28;20708;-84
2022/07/11 04:06:14;;;;;;;12.65;7.90;;;17.40;99.90;;;;;;5030728;28;20180;-83
2022/07/11 04:08:40;;;;;;;19.15;9.10;;;17.50;99.90;;;;;;5015581;28;20298;-83
2022/07/11 04:11:06;;;;;;;15.55;9.07;;;17.50;99.90;;;;;;5015941;28;20244;-83
2022/07/11 04:13:32;;;;;;;11.48;8.40;;;17.70;99.90;;;;;;5032308;28;20177;-84
2022/07/11 04:15:58;;;;;;;9.68;8.02;;;18.00;99.90;;;;;;5018251;28;20276;-83
2022/07/11 04:18:24;;;;;;;8.77;7.97;;;18.40;99.90;;;;;;5033745;28;20177;-84
2022/07/11 04:20:49;;;;;;;11.93;7.63;;;18.60;99.90;;;;;;5018569;28;20235;-84
2022/07/11 04:23:16;;;;;;;19.40;7.30;;;18.80;99.90;;;;;;5033303;28;20207;-84
2022/07/11 04:25:42;;;;;;;11.32;7.72;;;18.80;99.90;;;;;;5018018;28;20164;-84
2022/07/11 04:28:07;;;;;;;14.07;7.65;;;18.80;99.90;;;;;;5017226;28;20212;-83
2022/07/11 04:30:33;;;;;;;16.92;8.05;;;18.80;99.90;;;;;;5026717;28;20173;-81
2022/07/11 04:32:59;;;;;;;16.73;8.90;;;18.90;99.90;;;;;;5039044;28;20243;-81
2022/07/11 04:35:27;;;;;;;18.50;9.40;;;18.90;99.90;;;;;;5035104;28;20199;-82
2022/07/11 04:37:53;;;;;;;14.05;9.23;;;19.00;99.90;;;;;;5036083;28;20228;-81
2022/07/11 04:40:20;;;;;;;18.98;10.27;;;19.00;99.90;;;;;;5054235;28;20197;-83
2022/07/11 04:42:46;;;;;;;29.58;10.57;;;18.60;99.90;;;;;;5038560;28;20240;-83
2022/07/11 04:45:11;;;;;;;33.50;12.48;;;18.60;99.90;;;;;;5039450;28;20153;-82
2022/07/11 04:47:37;;;;;;;20.98;12.88;;;18.60;99.90;;;;;;5029498;28;20219;-82
2022/07/11 04:50:03;;;;;;;25.75;14.70;;;18.60;99.90;;;;;;5022598;28;20195;-83
2022/07/11 04:52:29;;;;;;;20.02;13.85;;;18.60;99.90;;;;;;5016964;28;20182;-84
2022/07/11 04:54:54;;;;;;;31.67;14.43;;;18.70;99.90;;;;;;5015551;28;20617;-83
2022/07/11 04:57:20;;;;;;;28.08;14.82;;;18.60;99.90;;;;;;5015488;28;20637;-82
2022/07/11 04:59:46;;;;;;;21.90;14.43;;;18.50;99.90;;;;;;5030196;28;20211;-82
2022/07/11 05:02:11;;;;;;;39.00;15.70;;;18.60;99.90;;;;;;5013579;28;20260;-82
2022/07/11 05:04:37;;;;;;;18.92;13.90;;;18.50;99.90;;;;;;5015439;28;20167;-84
2022/07/11 05:07:03;;;;;;;25.45;16.00;;;18.60;99.90;;;;;;5030458;28;20176;-82
2022/07/11 05:09:29;;;;;;;28.50;16.70;;;18.70;99.90;;;;;;5035296;28;20243;-79
2022/07/11 05:11:54;;;;;;;28.45;14.95;;;18.80;99.90;;;;;;5043390;28;20180;-82
2022/07/11 05:14:20;;;;;;;21.50;16.05;;;18.90;99.90;;;;;;5015114;28;20165;-83
2022/07/11 05:16:45;;;;;;;26.70;14.70;;;18.80;99.90;;;;;;5015339;28;20260;-82
2022/07/11 05:19:11;;;;;;;30.65;16.15;;;18.80;99.90;;;;;;5014628;28;20280;-81
2022/07/11 05:21:37;;;;;;;35.88;16.25;;;18.90;99.90;;;;;;5013179;28;20160;-83
2022/07/11 05:24:03;;;;;;;23.50;15.05;;;19.00;99.90;;;;;;5029295;28;20187;-82
2022/07/11 05:26:32;;;;;;;32.28;16.30;;;19.00;99.90;;;;;;5029647;28;20179;-83
2022/07/11 05:28:57;;;;;;;26.52;16.13;;;19.00;99.90;;;;;;5029076;28;20216;-83
2022/07/11 05:31:23;;;;;;;17.85;14.00;;;19.30;99.90;;;;;;5014226;28;20629;-84
2022/07/11 05:33:48;;;;;;;20.00;13.98;;;19.20;99.90;;;;;;5014517;28;20165;-83
2022/07/11 05:36:14;;;;;;;19.77;13.50;;;19.10;99.90;;;;;;5014333;28;20156;-82
2022/07/11 05:38:39;;;;;;;23.08;14.20;;;19.10;99.90;;;;;;5014473;28;20251;-83
2022/07/11 05:41:05;;;;;;;17.83;12.57;;;19.20;99.90;;;;;;5029905;28;20165;-83
2022/07/11 05:43:31;;;;;;;22.58;11.68;;;19.40;99.90;;;;;;5014560;28;20176;-83
2022/07/11 05:45:56;;;;;;;21.10;12.05;;;19.10;99.90;;;;;;5029363;28;20221;-82
2022/07/11 05:48:22;;;;;;;19.48;11.98;;;19.00;99.90;;;;;;5014214;28;20583;-82
2022/07/11 05:50:47;;;;;;;20.52;11.70;;;19.40;99.90;;;;;;5013956;28;20544;-85
2022/07/11 05:53:14;;;;;;;13.32;10.65;;;19.40;99.90;;;;;;5013669;28;20667;-85
2022/07/11 05:55:40;;;;;;;13.50;10.55;;;19.50;99.90;;;;;;5014120;28;20202;-86
2022/07/11 05:58:06;;;;;;;15.60;10.90;;;19.40;99.90;;;;;;5029422;28;20188;-84
2022/07/11 06:00:32;;;;;;;20.90;10.60;;;19.50;99.90;;;;;;5028230;28;20255;-81
2022/07/11 06:02:57;;;;;;;21.42;10.52;;;19.50;99.90;;;;;;5012581;28;20157;-84
2022/07/11 06:05:23;;;;;;;12.98;9.98;;;19.30;99.90;;;;;;5013244;28;20172;-80
2022/07/11 06:10:33;;;;;;;19.40;10.77;;;19.70;99.90;;;;;;5013070;28;20242;-79
2022/07/11 06:12:59;;;;;;;18.00;10.80;;;19.90;99.90;;;;;;5012897;28;20168;-80
2022/07/11 06:15:24;;;;;;;16.65;10.07;;;20.00;99.90;;;;;;5013135;28;20189;-85
2022/07/11 06:17:50;;;;;;;28.00;10.18;;;20.20;99.90;;;;;;5012936;28;20644;-80
2022/07/11 06:20:16;;;;;;;20.42;10.23;;;20.10;99.90;;;;;;5012975;28;20267;-80
2022/07/11 06:22:42;;;;;;;12.13;8.35;;;19.70;99.90;;;;;;5012048;28;20179;-82
2022/07/11 06:25:09;;;;;;;13.73;8.90;;;19.70;99.90;;;;;;5011771;28;20179;-80
2022/07/11 06:27:35;;;;;;;14.60;8.70;;;19.70;99.90;;;;;;5012736;28;20657;-80
2022/07/11 06:30:01;;;;;;;15.55;8.60;;;19.80;99.90;;;;;;5012787;28;20664;-80
2022/07/11 06:32:26;;;;;;;8.38;7.40;;;19.80;99.90;;;;;;5014204;28;20172;-80
2022/07/11 06:34:52;;;;;;;13.60;7.20;;;19.60;99.90;;;;;;5012529;28;20505;-80
2022/07/11 06:37:19;;;;;;;13.15;6.38;;;19.70;99.90;;;;;;5012444;28;20168;-80
2022/07/11 06:39:45;;;;;;;17.88;6.50;;;19.70;99.90;;;;;;5012110;28;20188;-79
2022/07/11 06:42:10;;;;;;;5.85;5.30;;;19.60;99.90;;;;;;5011923;28;20595;-81
2022/07/11 06:44:36;;;;;;;10.45;5.57;;;19.70;99.90;;;;;;5011993;28;20171;-80
2022/07/11 06:47:01;;;;;;;7.10;4.90;;;19.90;99.90;;;;;;5027726;28;20261;-81
2022/07/11 06:49:27;;;;;;;5.93;5.10;;;20.00;99.90;;;;;;5028230;28;20204;-86
2022/07/11 06:51:52;;;;;;;11.38;6.18;;;20.30;99.90;;;;;;5028657;28;20200;-86
2022/07/11 06:54:18;;;;;;;12.43;5.13;;;20.20;99.90;;;;;;5029701;28;20232;-86
2022/07/11 06:56:44;;;;;;;8.45;3.85;;;20.30;99.90;;;;;;5028751;28;20633;-85
2022/07/11 06:59:09;;;;;;;6.85;5.15;;;20.20;99.90;;;;;;5013384;28;20278;-86
2022/07/11 07:01:35;;;;;;;16.20;4.00;;;20.30;99.90;;;;;;5013344;28;20652;-87
2022/07/11 07:04:01;;;;;;;8.18;4.50;;;20.70;99.90;;;;;;5028604;28;20211;-87
2022/07/11 07:06:26;;;;;;;6.25;4.18;;;21.20;99.90;;;;;;5028811;28;20173;-84
2022/07/11 07:08:52;;;;;;;6.97;3.90;;;22.40;99.90;;;;;;5027813;28;20211;-84
2022/07/11 07:11:19;;;;;;;13.48;4.68;;;23.20;99.90;;;;;;5027835;28;20165;-85
2022/07/11 07:13:45;;;;;;;7.07;3.95;;;23.70;99.90;;;;;;5012885;28;20180;-86
2022/07/11 07:16:11;;;;;;;7.10;3.53;;;24.80;99.90;;;;;;5027814;28;20649;-86
2022/07/11 07:18:42;;;;;;;9.13;4.00;;;25.80;99.90;;;;;;5013125;28;20199;-84
2022/07/11 07:21:08;;;;;;;6.47;3.67;;;25.20;99.90;;;;;;5028016;28;20169;-83
2022/07/11 07:23:33;;;;;;;4.45;3.17;;;24.80;99.90;;;;;;5027677;28;20640;-83
2022/07/11 07:25:59;;;;;;;7.30;4.10;;;24.40;99.90;;;;;;5027394;28;20634;-84
2022/07/11 07:28:28;;;;;;;7.18;5.45;;;24.10;99.90;;;;;;5012124;28;20602;-84
2022/07/11 07:30:54;;;;;;;9.90;3.92;;;24.30;99.90;;;;;;5027556;28;20192;-83
2022/07/11 07:33:20;;;;;;;5.63;4.82;;;24.60;99.90;;;;;;5014313;28;20185;-84
2022/07/11 07:35:45;;;;;;;8.25;4.18;;;25.60;99.90;;;;;;5018020;28;20200;-84
2022/07/11 07:38:12;;;;;;;5.55;4.22;;;26.40;99.90;;;;;;5033608;28;20236;-84
2022/07/11 07:40:39;;;;;;;4.72;4.22;;;27.30;99.90;;;;;;5019044;28;20215;-85
2022/07/11 07:43:06;;;;;;;7.93;4.10;;;27.00;99.90;;;;;;5022364;28;20183;-84
2022/07/11 07:45:32;;;;;;;12.70;4.35;;;27.80;99.90;;;;;;5047172;28;20156;-87
2022/07/11 07:48:04;;;;;;;8.40;4.65;;;27.00;99.90;;;;;;5039875;28;20219;-84
2022/07/11 07:50:30;;;;;;;5.10;4.47;;;26.50;99.90;;;;;;5045289;28;20211;-83
2022/07/11 07:52:55;;;;;;;10.55;4.82;;;27.30;99.90;;;;;;5036941;28;20266;-84
2022/07/11 07:55:21;;;;;;;10.30;5.28;;;27.60;99.90;;;;;;5034890;28;20168;-87
2022/07/11 07:57:48;;;;;;;10.02;4.55;;;27.00;99.90;;;;;;5035155;28;20624;-87
2022/07/11 08:03:04;;;;;;;6.22;3.85;;;25.40;99.90;;;;;;5020067;28;20215;-86
2022/07/11 08:05:29;;;;;;;10.23;3.75;;;24.50;99.90;;;;;;5032146;28;20173;-83
2022/07/11 08:07:55;;;;;;;8.90;3.17;;;24.40;99.90;;;;;;5015262;28;20207;-88
2022/07/11 08:10:21;;;;;;;5.53;4.07;;;24.30;99.90;;;;;;5017438;28;20554;-84
2022/07/11 08:12:46;;;;;;;4.15;3.42;;;24.30;99.90;;;;;;5017677;28;20197;-86
2022/07/11 08:15:12;;;;;;;17.92;3.55;;;23.90;99.90;;;;;;5017216;28;20203;-86
2022/07/11 08:17:38;;;;;;;6.55;3.47;;;23.90;99.90;;;;;;5018478;28;20184;-83
2022/07/11 08:20:04;;;;;;;7.65;4.25;;;23.80;99.90;;;;;;5017156;28;20196;-87
2022/07/11 08:22:30;;;;;;;9.73;4.85;;;23.80;99.90;;;;;;5019633;28;20351;-84
2022/07/11 08:24:55;;;;;;;16.98;4.60;;;23.80;99.90;;;;;;5018375;28;20272;-84
2022/07/11 08:27:21;;;;;;;12.90;4.07;;;23.50;99.90;;;;;;5017500;28;20179;-87
2022/07/11 08:29:58;;;;;;;6.45;4.32;;;23.30;99.90;;;;;;5018547;28;21025;-84
2022/07/11 08:32:24;;;;;;;6.47;3.83;;;22.80;99.90;;;;;;5017004;28;20175;-85
2022/07/11 08:34:50;;;;;;;8.95;3.53;;;22.40;99.90;;;;;;5019129;28;20184;-83
2022/07/11 08:37:16;;;;;;;5.82;4.40;;;22.50;99.90;;;;;;5018395;28;20168;-85
2022/07/11 08:39:41;;;;;;;5.18;4.57;;;22.60;99.90;;;;;;4998484;28;20269;-85
2022/07/11 08:42:08;;;;;;;6.22;4.50;;;22.90;99.90;;;;;;4996007;28;20582;-86
2022/07/11 08:44:34;;;;;;;11.95;3.90;;;22.50;99.90;;;;;;4994804;28;20219;-87
2022/07/11 08:47:03;;;;;;;7.00;3.97;;;22.40;99.90;;;;;;4995780;28;20420;-85
2022/07/11 08:49:30;;;;;;;5.90;3.65;;;22.70;99.90;;;;;;5030594;28;20489;-92
2022/07/11 08:51:57;;;;;;;7.38;3.00;;;22.80;99.90;;;;;;5014334;28;20169;-91
2022/07/11 08:54:23;;;;;;;3.85;2.58;;;22.90;99.90;;;;;;5015833;28;20173;-90
2022/07/11 08:56:52;;;;;;;8.70;3.70;;;22.70;99.90;;;;;;5018643;28;20169;-92
2022/07/11 08:59:18;;;;;;;5.50;3.22;;;23.00;99.90;;;;;;5015025;28;20193;-90
2022/07/11 09:01:45;;;;;;;7.45;3.45;;;23.00;99.90;;;;;;5014787;28;20610;-88
2022/07/11 09:04:13;;;;;;;4.03;3.25;;;23.00;99.90;;;;;;5014847;28;20168;-88
2022/07/11 09:06:39;;;;;;;6.97;2.85;;;23.20;99.90;;;;;;5014383;28;20210;-86
2022/07/11 09:09:05;;;;;;;6.18;2.30;;;23.30;99.90;;;;;;5011987;28;20232;-87
2022/07/11 09:11:50;;;;;;;7.20;2.38;;;23.50;99.90;;;;;;5013792;28;20200;-86
2022/07/11 09:14:24;;;;;;;7.40;2.58;;;23.60;99.90;;;;;;5029232;28;20172;-82
2022/07/11 09:17:08;;;;;;;3.63;2.53;;;23.80;99.90;;;;;;5013289;28;20207;-84
2022/07/11 09:19:41;;;;;;;3.58;2.92;;;23.70;99.90;;;;;;5013464;28;20195;-83
2022/07/11 09:25:31;;;;;;;4.70;2.28;;;23.60;99.90;;;;;;5014791;28;20193;-85
2022/07/11 09:28:04;;;;;;;5.55;2.40;;;23.70;99.90;;;;;;5030657;28;20203;-84
2022/07/11 09:30:43;;;;;;;8.30;3.22;;;23.40;99.90;;;;;;5014390;28;20287;-85
2022/07/11 09:33:11;;;;;;;7.22;2.83;;;23.60;99.90;;;;;;5014670;28;20195;-83
2022/07/11 09:35:42;;;;;;;10.88;3.05;;;23.40;99.90;;;;;;5014750;28;20168;-84
2022/07/11 09:38:09;;;;;;;6.65;2.30;;;23.60;99.90;;;;;;5013554;28;20250;-86
2022/07/11 09:40:35;;;;;;;16.70;3.03;;;23.90;99.90;;;;;;5013794;28;20231;-85
2022/07/11 09:43:02;;;;;;;13.85;2.75;;;23.90;99.90;;;;;;5013588;28;20173;-82
2022/07/11 09:45:30;;;;;;;2.47;2.10;;;23.90;99.90;;;;;;5013331;28;20218;-84
2022/07/11 09:47:59;;;;;;;7.18;3.08;;;23.80;99.90;;;;;;5028193;28;20173;-82
2022/07/11 09:50:26;;;;;;;10.30;2.58;;;23.50;99.90;;;;;;5012547;28;20190;-83
2022/07/11 09:53:09;;;;;;;5.18;2.42;;;23.50;99.90;;;;;;5028254;28;20223;-82
2022/07/11 09:55:45;;;;;;;4.60;2.20;;;23.60;99.90;;;;;;5028143;28;20183;-82
2022/07/11 09:58:15;;;;;;;11.27;3.40;;;24.00;99.90;;;;;;5028568;28;20244;-82
2022/07/11 10:00:42;;;;;;;4.00;2.95;;;24.20;99.90;;;;;;5012957;28;20310;-81
2022/07/11 10:03:10;;;;;;;15.15;3.03;;;24.30;99.90;;;;;;5013162;28;20168;-82
2022/07/11 10:05:36;;;;;;;3.75;3.03;;;24.50;99.90;;;;;;5013421;28;20251;-82
2022/07/11 10:08:03;;;;;;;9.43;2.83;;;24.30;99.90;;;;;;5012849;28;20200;-83
2022/07/11 10:10:30;;;;;;;8.23;2.72;;;24.40;99.90;;;;;;5028380;28;20196;-81
2022/07/11 10:12:56;;;;;;;8.27;2.58;;;24.40;99.90;;;;;;5013509;28;20764;-83
2022/07/11 10:15:34;;;;;;;4.30;2.42;;;24.80;99.90;;;;;;5028223;28;20188;-83
2022/07/11 10:18:08;;;;;;;2.42;1.83;;;24.80;99.90;;;;;;5013179;28;20227;-82
2022/07/11 10:20:56;;;;;;;9.50;2.53;;;24.80;99.90;;;;;;5033316;28;20195;-82
2022/07/11 10:23:31;;;;;;;7.80;2.90;;;24.80;99.90;;;;;;5027583;28;20165;-84
2022/07/11 10:26:10;;;;;;;4.00;2.53;;;24.50;99.90;;;;;;5035404;28;20168;-86
2022/07/11 10:28:39;;;;;;;2.55;2.35;;;24.60;99.90;;;;;;5016963;28;20254;-84
2022/07/11 10:31:21;;;;;;;3.42;2.20;;;24.80;99.90;;;;;;5028618;28;20562;-84
2022/07/11 10:34:04;;;;;;;3.08;2.50;;;25.00;99.90;;;;;;5028350;28;20519;-83
2022/07/11 10:36:38;;;;;;;3.83;2.78;;;24.90;99.90;;;;;;5013383;28;20724;-84
2022/07/11 10:39:19;;;;;;;2.35;1.77;;;24.80;99.90;;;;;;5028343;28;20191;-81
2022/07/11 10:41:45;;;;;;;3.67;2.22;;;24.70;99.90;;;;;;5028659;28;20227;-83
2022/07/11 10:44:11;;;;;;;4.80;1.77;;;24.30;99.90;;;;;;5028560;28;20267;-83
2022/07/11 10:46:37;;;;;;;1.83;1.63;;;24.50;99.90;;;;;;5016454;28;20175;-86
2022/07/11 10:49:43;;;;;;;3.97;1.80;;;24.80;99.90;;;;;;5030903;28;20759;-80
2022/07/11 10:52:08;;;;;;;4.10;2.15;;;24.90;99.90;;;;;;5031440;28;20532;-87
2022/07/11 10:54:38;;;;;;;2.35;2.03;;;25.20;99.90;;;;;;5046519;28;20190;-88
2022/07/11 10:57:26;;;;;;;2.42;1.73;;;25.50;99.90;;;;;;5009297;28;20177;-87
2022/07/11 11:00:02;;;;;;;5.75;1.60;;;25.30;99.90;;;;;;5009269;28;20268;-88
2022/07/11 11:02:29;;;;;;;7.30;1.58;;;25.30;99.90;;;;;;5009813;28;20180;-88
2022/07/11 11:05:00;;;;;;;2.40;1.90;;;25.20;99.90;;;;;;5026458;28;20641;-88
2022/07/11 11:07:37;;;;;;;5.80;2.03;;;25.20;99.90;;;;;;5028818;28;20172;-88
2022/07/11 11:10:17;;;;;;;10.65;2.65;;;25.40;99.90;;;;;;5031482;28;20234;-85
2022/07/11 11:13:04;;;;;;;2.90;2.08;;;25.50;99.90;;;;;;5016552;28;20191;-85
2022/07/11 11:15:46;;;;;;;3.00;1.88;;;25.10;99.90;;;;;;5015622;28;20314;-84
2022/07/11 11:18:23;;;;;;;4.95;2.22;;;25.10;99.90;;;;;;5016001;28;20243;-83
2022/07/11 11:21:07;;;;;;;2.58;2.38;;;25.60;99.90;;;;;;5030803;28;20212;-85
2022/07/11 11:23:35;;;;;;;3.25;2.40;;;25.50;99.90;;;;;;5016839;28;20168;-84
2022/07/11 11:26:08;;;;;;;3.58;2.40;;;24.70;99.90;;;;;;5015388;28;20177;-82
2022/07/11 11:28:34;;;;;;;2.53;2.33;;;24.70;99.90;;;;;;5031336;28;20257;-83
2022/07/11 11:31:03;;;;;;;2.75;2.50;;;24.90;99.90;;;;;;5031318;28;20203;-84
2022/07/11 11:33:31;;;;;;;3.50;2.63;;;25.10;99.90;;;;;;5014888;28;20260;-81
2022/07/11 11:36:05;;;;;;;3.75;2.88;;;25.40;99.90;;;;;;5015706;28;20246;-84
2022/07/11 11:38:34;;;;;;;4.00;2.85;;;25.50;99.90;;;;;;5015631;28;20204;-82
2022/07/11 11:41:00;;;;;;;7.88;2.95;;;25.20;99.90;;;;;;5014086;28;20195;-83
2022/07/11 11:43:25;;;;;;;4.00;3.70;;;25.20;99.90;;;;;;5014251;28;20263;-82
2022/07/11 11:45:53;;;;;;;3.00;2.75;;;24.90;99.90;;;;;;5014065;28;20169;-84
2022/07/11 11:48:32;;;;;;;16.77;3.83;;;24.90;99.90;;;;;;5014989;28;20211;-83
2022/07/11 11:51:10;;;;;;;4.78;3.78;;;24.80;99.90;;;;;;5015748;28;20234;-84
2022/07/11 11:54:04;;;;;;;4.05;3.65;;;24.70;99.90;;;;;;5016903;28;20168;-84
2022/07/11 11:56:34;;;;;;;18.30;5.25;;;24.90;99.90;;;;;;5016969;28;20176;-81
2022/07/11 11:59:12;;;;;;;5.45;3.47;;;24.80;99.90;;;;;;5016998;28;20202;-84
2022/07/11 12:01:47;;;;;;;5.70;2.95;;;24.70;99.90;;;;;;5030305;28;20226;-84
2022/07/11 12:04:15;;;;;;;4.43;2.80;;;24.90;99.90;;;;;;5017616;28;20174;-83
2022/07/11 12:06:49;;;;;;;4.22;3.83;;;24.90;99.90;;;;;;5017879;28;20174;-85
2022/07/11 12:09:17;;;;;;;3.97;3.55;;;24.90;99.90;;;;;;5016622;28;20577;-87
2022/07/11 12:11:46;;;;;;;4.15;3.83;;;24.80;99.90;;;;;;5039008;28;20167;-88
2022/07/11 12:14:14;;;;;;;4.63;3.70;;;24.70;99.90;;;;;;5019374;28;20216;-86
2022/07/11 12:16:47;;;;;;;4.40;3.58;;;25.00;99.90;;;;;;5017511;28;20188;-86
2022/07/11 12:19:18;;;;;;;9.32;3.90;;;24.50;99.90;;;;;;5018204;28;20197;-86
2022/07/11 12:21:46;;;;;;;8.85;4.00;;;24.50;99.90;;;;;;5032096;28;20176;-87
2022/07/11 12:24:21;;;;;;;3.78;3.15;;;24.80;99.90;;;;;;5032891;28;20251;-85
2022/07/11 12:26:47;;;;;;;4.00;2.45;;;24.90;99.90;;;;;;5014099;28;20621;-86
2022/07/11 12:29:19;;;;;;;5.05;2.40;;;25.00;99.90;;;;;;5030416;28;20212;-86
2022/07/11 12:31:59;;;;;;;39.75;5.63;;;25.00;99.90;;;;;;5031934;28;20196;-87
2022/07/11 12:34:45;;;;;;;8.88;3.03;;;25.10;99.90;;;;;;5030976;28;20160;-88
2022/07/11 12:37:13;;;;;;;4.18;3.22;;;25.20;99.90;;;;;;5016722;28;20674;-88
2022/07/11 12:39:49;;;;;;;11.25;3.35;;;25.20;99.90;;;;;;5016272;28;20199;-88
2022/07/11 12:42:23;;;;;;;7.00;3.03;;;25.50;99.90;;;;;;5031291;28;20266;-87
2022/07/11 12:45:07;;;;;;;5.30;2.80;;;25.50;99.90;;;;;;5015723;28;20183;-88
2022/07/11 12:47:40;;;;;;;5.88;3.47;;;25.70;99.90;;;;;;5038485;28;20165;-84
2022/07/11 12:50:15;;;;;;;4.28;3.25;;;25.20;99.90;;;;;;5030589;28;20276;-86
2022/07/11 12:52:47;;;;;;;4.07;2.88;;;25.30;99.90;;;;;;5052938;28;20156;-83
2022/07/11 12:55:29;;;;;;;219.70;15.43;;;25.40;99.90;;;;;;5030636;28;20165;-85